Time;durP1;ratioP1;P1;durP2;ratioP2;P2;SDS_P1;SDS_P2;PMS_P1;PMS_P2;Temp;Humidity;BMP_temperature;BMP_pressure;BME280_temperature;BME280_humidity;BME280_pressure;Samples;Min_cycle;Max_cycle;Signal;HPM_P1;HPM_P2
2021/05/07 00:01:57;;;;;;;4.00;3.50;;;7.90;99.90;;;;;;5053632;28;20760;-65
2021/05/07 00:04:24;;;;;;;4.40;4.00;;;7.90;99.90;;;;;;5053949;28;20225;-66
2021/05/07 00:06:52;;;;;;;4.87;4.00;;;7.90;99.90;;;;;;5053993;28;20263;-66
2021/05/07 00:09:19;;;;;;;4.70;3.87;;;8.00;99.90;;;;;;5053920;28;20280;-65
2021/05/07 00:11:46;;;;;;;4.70;4.10;;;7.90;99.90;;;;;;5053833;28;20308;-66
2021/05/07 00:14:13;;;;;;;5.07;4.20;;;7.90;99.90;;;;;;5053706;28;20204;-65
2021/05/07 00:16:41;;;;;;;5.53;5.03;;;7.80;99.90;;;;;;5053650;28;20233;-66
2021/05/07 00:19:09;;;;;;;5.93;4.63;;;7.70;99.90;;;;;;5053597;28;20212;-65
2021/05/07 00:21:39;;;;;;;4.90;4.40;;;7.70;99.90;;;;;;5053693;28;20237;-66
2021/05/07 00:24:07;;;;;;;8.50;5.93;;;7.60;99.90;;;;;;5053777;28;20262;-66
2021/05/07 00:26:34;;;;;;;8.47;5.77;;;7.60;99.90;;;;;;5053380;28;20241;-53
2021/05/07 00:29:02;;;;;;;5.90;4.93;;;7.50;99.90;;;;;;5053448;28;20204;-56
2021/05/07 00:31:29;;;;;;;6.93;4.97;;;7.50;99.90;;;;;;5053014;28;20308;-53
2021/05/07 00:33:57;;;;;;;5.83;5.23;;;7.50;99.90;;;;;;5053480;28;20201;-55
2021/05/07 00:36:24;;;;;;;5.83;5.23;;;7.50;99.90;;;;;;5053479;28;20207;-54
2021/05/07 00:38:50;;;;;;;6.80;5.67;;;7.50;99.90;;;;;;5053194;28;20235;-53
2021/05/07 00:41:17;;;;;;;7.17;6.47;;;7.40;99.90;;;;;;5053344;28;20288;-53
2021/05/07 00:43:44;;;;;;;7.07;5.70;;;7.40;99.90;;;;;;5052891;28;20292;-53
2021/05/07 00:46:11;;;;;;;6.80;6.03;;;7.40;99.90;;;;;;5053235;28;20288;-55
2021/05/07 00:48:39;;;;;;;8.77;6.70;;;7.30;99.90;;;;;;5052982;28;20690;-53
2021/05/07 00:51:06;;;;;;;7.60;6.10;;;7.30;99.90;;;;;;5052911;28;20220;-54
2021/05/07 00:53:33;;;;;;;7.20;6.03;;;7.30;99.90;;;;;;5052437;28;20208;-54
2021/05/07 00:56:00;;;;;;;6.77;6.00;;;7.20;99.90;;;;;;5052761;28;20288;-55
2021/05/07 00:58:27;;;;;;;7.40;6.37;;;7.10;99.90;;;;;;5052380;28;20728;-53
2021/05/07 01:00:54;;;;;;;8.50;7.10;;;7.10;99.90;;;;;;5052520;28;20716;-54
2021/05/07 01:03:21;;;;;;;7.70;6.80;;;7.10;99.90;;;;;;5052729;28;20573;-55
2021/05/07 01:05:48;;;;;;;8.80;7.90;;;7.00;99.90;;;;;;5052557;28;20205;-54
2021/05/07 01:08:18;;;;;;;9.80;8.77;;;7.00;99.90;;;;;;5052520;28;20601;-54
2021/05/07 01:10:45;;;;;;;12.10;9.07;;;7.00;99.90;;;;;;5052537;28;20244;-54
2021/05/07 01:13:12;;;;;;;8.13;7.03;;;7.00;99.90;;;;;;5052181;28;20288;-55
2021/05/07 01:15:41;;;;;;;9.93;8.07;;;7.00;99.90;;;;;;5052486;28;20351;-55
2021/05/07 01:18:10;;;;;;;9.20;7.23;;;7.00;99.90;;;;;;5052341;28;20240;-54
2021/05/07 01:20:39;;;;;;;9.33;6.67;;;7.20;99.90;;;;;;5052123;28;20695;-55
2021/05/07 01:23:09;;;;;;;7.03;5.63;;;7.30;99.90;;;;;;5052546;28;20208;-55
2021/05/07 01:25:38;;;;;;;6.47;5.40;;;7.30;99.90;;;;;;5052590;28;20271;-56
2021/05/07 01:28:07;;;;;;;5.40;4.80;;;7.30;99.90;;;;;;5052079;28;20233;-55
2021/05/07 01:30:36;;;;;;;5.77;4.30;;;7.40;99.90;;;;;;5052437;28;20201;-54
2021/05/07 01:33:04;;;;;;;5.17;4.40;;;7.50;99.90;;;;;;5052485;28;20292;-55
2021/05/07 01:35:32;;;;;;;5.20;4.70;;;7.40;99.90;;;;;;5052361;28;20197;-55
2021/05/07 01:38:03;;;;;;;5.33;4.60;;;7.40;99.90;;;;;;5052101;28;20687;-54
2021/05/07 01:40:31;;;;;;;5.10;4.60;;;7.40;99.90;;;;;;5052575;28;20273;-55
2021/05/07 01:42:59;;;;;;;7.17;4.40;;;7.40;99.90;;;;;;5052250;28;20197;-52
2021/05/07 01:45:27;;;;;;;5.33;4.27;;;7.30;99.90;;;;;;5052000;28;20941;-55
2021/05/07 01:47:55;;;;;;;5.00;4.50;;;7.30;99.90;;;;;;5052232;28;20741;-56
2021/05/07 01:50:23;;;;;;;5.13;4.20;;;7.30;99.90;;;;;;5052129;28;20212;-54
2021/05/07 01:52:50;;;;;;;4.63;4.10;;;7.30;99.90;;;;;;5052060;28;20331;-55
2021/05/07 01:55:23;;;;;;;5.07;4.40;;;7.30;99.90;;;;;;5052161;28;20284;-57
2021/05/07 01:57:50;;;;;;;6.20;5.10;;;7.50;99.90;;;;;;5052238;28;20188;-54
2021/05/07 02:00:19;;;;;;;7.77;5.93;;;7.50;99.90;;;;;;5051991;28;20225;-55
2021/05/07 02:02:46;;;;;;;7.43;6.37;;;7.40;99.90;;;;;;5052061;28;20197;-56
2021/05/07 02:05:14;;;;;;;8.47;6.90;;;7.40;99.90;;;;;;5053755;28;20292;-53
2021/05/07 02:07:42;;;;;;;7.83;7.03;;;7.40;99.90;;;;;;5056093;28;20226;-55
2021/05/07 02:10:12;;;;;;;7.80;7.00;;;7.30;99.90;;;;;;5055740;28;20565;-55
2021/05/07 02:12:40;;;;;;;8.80;7.80;;;7.40;99.90;;;;;;5056032;28;20219;-55
2021/05/07 02:15:09;;;;;;;10.33;8.53;;;7.30;99.90;;;;;;5055626;28;20744;-55
2021/05/07 02:17:36;;;;;;;10.20;8.03;;;7.30;99.90;;;;;;5055743;28;20679;-53
2021/05/07 02:20:04;;;;;;;10.20;8.53;;;7.40;99.90;;;;;;5055705;28;20224;-53
2021/05/07 02:22:31;;;;;;;8.90;8.00;;;7.40;99.90;;;;;;5055897;28;20283;-54
2021/05/07 02:24:57;;;;;;;11.47;9.53;;;7.40;99.90;;;;;;5055879;28;20197;-55
2021/05/07 02:27:24;;;;;;;10.73;9.33;;;7.40;99.90;;;;;;5055318;28;20924;-54
2021/05/07 02:29:52;;;;;;;10.90;9.17;;;7.30;99.90;;;;;;5055583;28;20201;-57
2021/05/07 02:32:19;;;;;;;10.50;9.40;;;7.30;99.90;;;;;;5055288;28;20221;-56
2021/05/07 02:34:47;;;;;;;10.30;9.20;;;7.30;99.90;;;;;;5055285;28;20220;-55
2021/05/07 02:37:13;;;;;;;11.50;10.27;;;7.30;99.90;;;;;;5055585;28;20236;-55
2021/05/07 02:39:40;;;;;;;9.70;8.77;;;7.40;99.90;;;;;;5055590;28;20201;-55
2021/05/07 02:42:08;;;;;;;10.03;8.90;;;7.30;99.90;;;;;;5055212;28;20294;-54
2021/05/07 02:44:34;;;;;;;9.67;8.67;;;7.40;99.90;;;;;;5055304;28;20209;-55
2021/05/07 02:47:04;;;;;;;8.80;7.60;;;7.50;99.90;;;;;;5055129;28;20664;-54
2021/05/07 02:49:31;;;;;;;9.00;7.73;;;7.50;99.90;;;;;;5054976;28;20688;-54
2021/05/07 02:51:58;;;;;;;8.63;7.50;;;7.40;99.90;;;;;;5055305;28;20278;-55
2021/05/07 02:54:25;;;;;;;7.13;6.30;;;7.50;99.90;;;;;;5055285;28;20541;-55
2021/05/07 02:56:52;;;;;;;9.33;7.50;;;7.40;99.90;;;;;;5054993;28;20672;-55
2021/05/07 02:59:18;;;;;;;8.40;7.03;;;7.50;99.90;;;;;;5055094;28;20300;-55
2021/05/07 03:01:45;;;;;;;9.43;7.60;;;7.30;99.90;;;;;;5054748;28;20287;-56
2021/05/07 03:04:13;;;;;;;8.53;7.33;;;7.40;99.90;;;;;;5054830;28;20293;-54
2021/05/07 03:06:40;;;;;;;8.40;7.40;;;7.40;99.90;;;;;;5054882;28;20204;-54
2021/05/07 03:09:07;;;;;;;8.00;7.20;;;7.40;99.90;;;;;;5054609;28;20780;-66
2021/05/07 03:11:34;;;;;;;8.73;7.33;;;7.40;99.90;;;;;;5054938;28;20260;-66
2021/05/07 03:14:00;;;;;;;7.90;7.10;;;7.40;99.90;;;;;;5054488;28;20295;-66
2021/05/07 03:16:27;;;;;;;8.17;7.37;;;7.40;99.90;;;;;;5054339;28;20228;-66
2021/05/07 03:18:54;;;;;;;8.37;7.47;;;7.30;99.90;;;;;;5054837;28;20198;-66
2021/05/07 03:21:22;;;;;;;9.83;7.60;;;7.30;99.90;;;;;;5054386;28;20216;-66
2021/05/07 03:23:49;;;;;;;10.37;8.13;;;7.40;99.90;;;;;;5054442;28;20243;-66
2021/05/07 03:26:16;;;;;;;10.23;8.37;;;7.30;99.90;;;;;;5054212;28;20801;-66
2021/05/07 03:28:48;;;;;;;9.37;8.17;;;7.30;99.90;;;;;;5054467;28;20193;-66
2021/05/07 03:31:15;;;;;;;9.03;7.87;;;7.30;99.90;;;;;;5054535;28;20228;-65
2021/05/07 03:33:44;;;;;;;10.03;8.80;;;7.30;99.90;;;;;;5054540;28;20240;-66
2021/05/07 03:36:12;;;;;;;10.73;9.10;;;7.30;99.90;;;;;;5054362;28;20559;-65
2021/05/07 03:38:39;;;;;;;10.30;8.50;;;7.20;99.90;;;;;;5054299;28;20698;-66
2021/05/07 03:41:06;;;;;;;11.17;9.37;;;7.30;99.90;;;;;;5054417;28;20287;-66
2021/05/07 03:43:33;;;;;;;13.00;9.40;;;7.30;99.90;;;;;;5054238;28;20216;-65
2021/05/07 03:46:00;;;;;;;11.97;9.60;;;7.20;99.90;;;;;;5054384;28;20205;-66
2021/05/07 03:48:27;;;;;;;12.70;10.20;;;7.20;99.90;;;;;;5054394;28;20293;-66
2021/05/07 03:50:55;;;;;;;12.30;10.50;;;7.20;99.90;;;;;;5054174;28;20290;-66
2021/05/07 03:53:22;;;;;;;13.90;9.63;;;7.20;99.90;;;;;;5054340;28;20561;-66
2021/05/07 03:55:51;;;;;;;12.13;10.20;;;7.20;99.90;;;;;;5054480;28;20206;-67
2021/05/07 03:58:18;;;;;;;12.60;10.70;;;7.20;99.90;;;;;;5054139;28;20293;-65
2021/05/07 04:00:45;;;;;;;14.87;11.50;;;7.20;99.90;;;;;;5054185;28;20538;-65
2021/05/07 04:03:12;;;;;;;13.13;11.47;;;7.10;99.90;;;;;;5053798;28;20202;-66
2021/05/07 04:05:39;;;;;;;15.23;12.47;;;7.10;99.90;;;;;;5053621;28;20663;-66
2021/05/07 04:08:11;;;;;;;15.03;12.27;;;7.10;99.90;;;;;;5054019;28;20293;-65
2021/05/07 04:10:42;;;;;;;15.70;12.37;;;7.10;99.90;;;;;;5054038;28;20199;-66
2021/05/07 04:15:54;;;;;;;16.07;12.47;;;7.10;99.90;;;;;;5053533;28;20192;-65
2021/05/07 04:18:21;;;;;;;15.17;12.90;;;7.10;99.90;;;;;;5053656;28;20204;-66
2021/05/07 04:20:48;;;;;;;16.70;12.67;;;7.10;99.90;;;;;;5053494;28;20308;-66
2021/05/07 04:23:16;;;;;;;15.67;12.67;;;7.10;99.90;;;;;;5053548;28;20200;-66
2021/05/07 04:25:42;;;;;;;15.77;12.00;;;7.10;99.90;;;;;;5053631;28;20629;-66
2021/05/07 04:28:10;;;;;;;15.70;12.40;;;7.10;99.90;;;;;;5052170;28;20274;-66
2021/05/07 04:30:37;;;;;;;14.13;11.90;;;7.10;99.90;;;;;;5052523;28;20695;-66
2021/05/07 04:33:05;;;;;;;14.80;11.80;;;7.10;99.90;;;;;;5053135;28;20222;-66
2021/05/07 04:35:32;;;;;;;16.03;12.73;;;7.10;99.90;;;;;;5052545;28;20201;-66
2021/05/07 04:38:02;;;;;;;16.30;12.53;;;7.10;99.90;;;;;;5053023;28;20185;-65
2021/05/07 04:40:28;;;;;;;12.50;11.20;;;7.20;99.90;;;;;;5053038;28;20529;-66
2021/05/07 04:42:55;;;;;;;20.70;13.70;;;7.20;99.90;;;;;;5052967;28;20240;-66
2021/05/07 04:45:23;;;;;;;14.90;11.97;;;7.20;99.90;;;;;;5052929;28;20205;-66
2021/05/07 04:47:50;;;;;;;14.87;11.87;;;7.20;99.90;;;;;;5053227;28;20208;-52
2021/05/07 04:50:17;;;;;;;16.30;13.07;;;7.20;99.90;;;;;;5052730;28;20213;-54
2021/05/07 04:52:44;;;;;;;15.50;12.47;;;7.30;99.90;;;;;;5052721;28;20220;-52
2021/05/07 04:55:11;;;;;;;15.07;11.17;;;7.10;99.90;;;;;;5052982;28;20291;-53
2021/05/07 04:57:38;;;;;;;12.37;10.43;;;7.10;99.90;;;;;;5052717;28;20706;-54
2021/05/07 05:00:06;;;;;;;10.37;8.70;;;7.00;99.90;;;;;;5052750;28;20206;-51
2021/05/07 05:02:34;;;;;;;7.53;6.50;;;7.00;99.90;;;;;;5052520;28;20257;-53
2021/05/07 05:05:02;;;;;;;8.00;6.60;;;6.90;99.90;;;;;;5052596;28;20291;-55
2021/05/07 05:07:29;;;;;;;6.63;5.63;;;6.80;99.90;;;;;;5052491;28;20671;-53
2021/05/07 05:09:56;;;;;;;6.27;5.60;;;6.70;99.90;;;;;;5052830;28;20307;-54
2021/05/07 05:12:23;;;;;;;6.47;5.27;;;6.70;99.90;;;;;;5052545;28;20280;-55
2021/05/07 05:14:51;;;;;;;7.93;5.47;;;6.80;99.90;;;;;;5052331;28;20211;-54
2021/05/07 05:17:18;;;;;;;5.07;4.43;;;6.80;99.90;;;;;;5052531;28;20299;-54
2021/05/07 05:19:47;;;;;;;4.17;3.77;;;6.80;99.90;;;;;;5052421;28;20202;-56
2021/05/07 05:22:14;;;;;;;3.90;3.40;;;6.80;99.90;;;;;;5052604;28;20289;-56
2021/05/07 05:24:43;;;;;;;4.20;3.63;;;6.80;99.90;;;;;;5052490;28;20212;-51
2021/05/07 05:27:10;;;;;;;4.27;3.87;;;6.80;99.90;;;;;;5052272;28;20260;-53
2021/05/07 05:29:36;;;;;;;4.07;3.17;;;6.70;99.90;;;;;;5052256;28;20214;-54
2021/05/07 05:32:04;;;;;;;3.67;3.20;;;6.70;99.90;;;;;;5052232;28;20316;-54
2021/05/07 05:34:32;;;;;;;3.83;2.70;;;6.70;99.90;;;;;;5052118;28;20212;-54
2021/05/07 05:37:03;;;;;;;3.00;2.70;;;6.70;99.90;;;;;;5052151;28;20302;-56
2021/05/07 05:39:30;;;;;;;4.70;3.17;;;6.70;99.90;;;;;;5051979;28;20610;-56
2021/05/07 05:41:57;;;;;;;3.73;3.43;;;6.80;99.90;;;;;;5051826;28;20318;-55
2021/05/07 05:44:24;;;;;;;3.97;3.67;;;6.90;99.90;;;;;;5048596;28;20588;-54
2021/05/07 05:46:51;;;;;;;4.93;3.90;;;7.10;99.90;;;;;;5049230;28;20306;-53
2021/05/07 05:49:19;;;;;;;3.13;2.83;;;7.30;99.90;;;;;;5049244;28;20199;-56
2021/05/07 05:51:46;;;;;;;2.63;2.43;;;7.50;99.90;;;;;;5049291;28;20323;-54
2021/05/07 05:54:13;;;;;;;3.23;2.93;;;7.80;99.90;;;;;;5049211;28;20231;-53
2021/05/07 05:56:42;;;;;;;3.10;2.80;;;8.30;99.90;;;;;;5049166;28;20588;-52
2021/05/07 05:59:09;;;;;;;2.83;2.43;;;8.80;99.90;;;;;;5048596;28;20232;-55
2021/05/07 06:01:35;;;;;;;2.60;2.40;;;9.10;99.90;;;;;;5049099;28;20251;-53
2021/05/07 06:04:03;;;;;;;3.03;2.73;;;9.40;99.90;;;;;;5049222;28;20208;-54
2021/05/07 06:06:30;;;;;;;2.73;2.50;;;9.70;99.90;;;;;;5049338;28;20236;-57
2021/05/07 06:08:57;;;;;;;3.00;2.77;;;9.70;99.90;;;;;;5048978;28;20208;-54
2021/05/07 06:11:24;;;;;;;2.33;2.13;;;9.60;99.90;;;;;;5049092;28;20321;-57
2021/05/07 06:13:51;;;;;;;3.93;2.70;;;9.30;99.90;;;;;;5048904;28;20284;-53
2021/05/07 06:16:18;;;;;;;2.90;2.63;;;9.20;99.90;;;;;;5048765;28;20694;-54
2021/05/07 06:18:45;;;;;;;3.50;2.43;;;9.20;99.90;;;;;;5048414;28;20296;-54
2021/05/07 06:21:12;;;;;;;2.70;2.40;;;9.30;99.90;;;;;;5048583;28;20292;-55
2021/05/07 06:23:39;;;;;;;2.20;2.00;;;9.50;99.90;;;;;;5048609;28;20202;-52
2021/05/07 06:26:06;;;;;;;2.63;2.27;;;9.80;99.90;;;;;;5048351;28;20244;-54
2021/05/07 06:28:33;;;;;;;3.93;3.50;;;9.90;99.90;;;;;;5047911;28;20225;-54
2021/05/07 06:31:00;;;;;;;3.80;3.50;;;9.80;99.90;;;;;;5047633;28;20240;-55
2021/05/07 06:33:27;;;;;;;4.30;3.90;;;9.70;99.90;;;;;;5048480;28;20316;-54
2021/05/07 06:35:54;;;;;;;4.67;4.27;;;9.50;99.90;;;;;;5048490;28;20227;-57
2021/05/07 06:38:21;;;;;;;4.70;4.30;;;9.50;99.90;;;;;;5048549;28;20202;-55
2021/05/07 06:40:49;;;;;;;4.90;4.40;;;9.50;99.90;;;;;;5048668;28;20288;-54
2021/05/07 06:43:16;;;;;;;5.83;4.70;;;9.50;99.90;;;;;;5048173;28;20204;-54
2021/05/07 06:45:44;;;;;;;5.60;4.77;;;9.30;99.90;;;;;;5047941;28;20205;-55
2021/05/07 06:48:11;;;;;;;5.17;4.40;;;9.20;99.90;;;;;;5047886;28;20695;-58
2021/05/07 06:50:38;;;;;;;4.70;4.20;;;9.00;99.90;;;;;;5047985;28;20267;-55
2021/05/07 06:53:04;;;;;;;4.60;4.07;;;8.60;99.90;;;;;;5051228;28;20213;-54
2021/05/07 06:55:32;;;;;;;4.97;4.00;;;8.40;99.90;;;;;;5051515;28;20661;-54
2021/05/07 06:57:58;;;;;;;3.30;3.00;;;8.20;99.90;;;;;;5051867;28;20292;-55
2021/05/07 07:00:25;;;;;;;2.90;2.70;;;8.00;99.90;;;;;;5052076;28;20239;-55
2021/05/07 07:02:53;;;;;;;2.40;2.20;;;7.90;99.90;;;;;;5051895;28;20216;-57
2021/05/07 07:05:20;;;;;;;2.50;2.30;;;7.80;99.90;;;;;;5051778;28;20283;-60
2021/05/07 07:07:47;;;;;;;1.80;1.70;;;7.80;99.90;;;;;;5051816;28;20225;-54
2021/05/07 07:10:19;;;;;;;1.40;1.30;;;8.00;99.90;;;;;;5051924;28;20193;-56
2021/05/07 07:12:46;;;;;;;0.93;0.93;;;8.00;99.90;;;;;;5051436;28;20675;-54
2021/05/07 07:15:15;;;;;;;1.50;1.20;;;7.90;99.90;;;;;;5051569;28;20213;-54
2021/05/07 07:17:41;;;;;;;2.73;1.20;;;7.90;99.90;;;;;;5051765;28;20219;-56
2021/05/07 07:20:11;;;;;;;1.30;1.20;;;8.00;99.90;;;;;;5051430;28;20205;-56
2021/05/07 07:22:38;;;;;;;1.57;1.10;;;8.20;99.90;;;;;;5051774;28;20608;-58
2021/05/07 07:25:06;;;;;;;1.30;1.20;;;8.50;99.90;;;;;;5051404;28;20204;-59
2021/05/07 07:27:33;;;;;;;2.63;1.30;;;8.60;99.90;;;;;;5051127;28;20232;-55
2021/05/07 07:29:59;;;;;;;1.47;1.37;;;8.60;99.90;;;;;;5051493;28;20283;-57
2021/05/07 07:32:27;;;;;;;1.67;1.57;;;8.60;99.90;;;;;;5051530;28;20275;-58
2021/05/07 07:34:59;;;;;;;1.40;1.30;;;8.50;99.90;;;;;;5051292;28;20266;-55
2021/05/07 07:37:27;;;;;;;1.50;1.40;;;8.70;99.90;;;;;;5051993;28;20205;-52
2021/05/07 07:39:54;;;;;;;1.70;1.60;;;9.00;99.90;;;;;;5051012;28;20699;-56
2021/05/07 07:42:21;;;;;;;1.30;1.20;;;9.30;99.90;;;;;;5051274;28;20205;-56
2021/05/07 07:44:50;;;;;;;1.40;1.30;;;9.40;99.90;;;;;;5050879;28;20213;-58
2021/05/07 07:47:17;;;;;;;1.60;1.50;;;9.40;99.90;;;;;;5051027;28;20205;-55
2021/05/07 07:49:44;;;;;;;2.03;1.57;;;9.20;99.90;;;;;;5050860;28;20296;-54
2021/05/07 07:52:14;;;;;;;1.70;1.60;;;9.10;99.90;;;;;;5050295;28;20704;-58
2021/05/07 07:54:41;;;;;;;1.70;1.60;;;9.30;99.90;;;;;;5051092;28;20208;-55
2021/05/07 07:57:08;;;;;;;2.10;1.50;;;9.50;99.90;;;;;;5050986;28;20632;-53
2021/05/07 07:59:35;;;;;;;2.37;1.67;;;9.30;99.90;;;;;;5050725;28;20239;-56
2021/05/07 08:02:04;;;;;;;1.80;1.70;;;9.10;99.90;;;;;;5050581;28;20204;-53
2021/05/07 08:04:31;;;;;;;1.70;1.60;;;9.10;99.90;;;;;;5050843;28;20243;-54
2021/05/07 08:07:00;;;;;;;1.80;1.70;;;9.20;99.90;;;;;;5050412;28;20307;-57
2021/05/07 08:09:26;;;;;;;1.70;1.60;;;9.10;99.90;;;;;;5050355;28;20248;-59
2021/05/07 08:11:54;;;;;;;1.70;1.60;;;9.40;99.90;;;;;;5050624;28;20308;-55
2021/05/07 08:14:27;;;;;;;1.60;1.50;;;9.30;99.90;;;;;;5050395;28;20640;-55
2021/05/07 08:16:54;;;;;;;2.27;1.63;;;9.20;99.90;;;;;;5050595;28;20570;-54
2021/05/07 08:19:21;;;;;;;1.70;1.60;;;8.90;99.90;;;;;;5050026;28;20197;-53
2021/05/07 08:21:48;;;;;;;2.00;1.90;;;8.90;99.90;;;;;;5050368;28;20291;-54
2021/05/07 08:24:15;;;;;;;1.83;1.70;;;8.70;99.90;;;;;;5050273;28;20665;-56
2021/05/07 08:26:42;;;;;;;1.90;1.80;;;8.60;99.90;;;;;;5049995;28;20328;-56
2021/05/07 08:29:09;;;;;;;1.90;1.80;;;8.50;99.90;;;;;;5050010;28;20298;-53
2021/05/07 08:31:36;;;;;;;1.73;1.63;;;8.50;99.90;;;;;;5050111;28;20243;-56
2021/05/07 08:34:04;;;;;;;2.13;1.93;;;8.20;99.90;;;;;;5050054;28;20248;-56
2021/05/07 08:36:30;;;;;;;2.30;2.10;;;8.10;99.90;;;;;;5050060;28;20197;-56
2021/05/07 08:38:57;;;;;;;2.37;2.03;;;8.10;99.90;;;;;;5049989;28;20232;-54
2021/05/07 08:41:24;;;;;;;2.50;2.30;;;8.10;99.90;;;;;;5049937;28;20668;-54
2021/05/07 08:43:52;;;;;;;2.50;2.30;;;8.00;99.90;;;;;;5049922;28;20304;-56
2021/05/07 08:46:21;;;;;;;2.20;2.00;;;8.10;99.90;;;;;;5049831;28;20560;-56
2021/05/07 08:48:48;;;;;;;2.20;2.00;;;8.10;99.90;;;;;;5049911;28;20211;-54
2021/05/07 08:51:15;;;;;;;4.13;2.23;;;8.30;99.90;;;;;;5049053;28;20236;-55
2021/05/07 08:53:42;;;;;;;2.30;2.13;;;8.50;99.90;;;;;;5049165;28;20221;-53
2021/05/07 08:56:23;;;;;;;1.90;1.80;;;8.50;99.90;;;;;;5049356;28;20193;-53
2021/05/07 08:58:50;;;;;;;2.27;2.00;;;8.40;99.90;;;;;;5048765;28;20672;-52
2021/05/07 09:01:17;;;;;;;1.80;1.70;;;8.20;99.90;;;;;;5048447;28;20825;-54
2021/05/07 09:03:47;;;;;;;1.80;1.70;;;8.20;99.90;;;;;;5048882;28;20224;-55
2021/05/07 09:06:15;;;;;;;2.60;1.70;;;8.10;99.90;;;;;;5049417;28;20284;-54
2021/05/07 09:08:42;;;;;;;1.97;1.87;;;8.10;99.90;;;;;;5049774;28;20201;-55
2021/05/07 09:11:12;;;;;;;1.90;1.80;;;8.10;99.90;;;;;;5049593;28;20231;-55
2021/05/07 09:13:39;;;;;;;2.03;1.93;;;8.10;99.90;;;;;;5048824;28;20734;-53
2021/05/07 09:16:07;;;;;;;2.70;2.50;;;8.00;99.90;;;;;;5049141;28;20555;-55
2021/05/07 09:18:42;;;;;;;2.63;2.20;;;8.00;99.90;;;;;;5049226;28;20204;-54
2021/05/07 09:21:10;;;;;;;2.73;2.53;;;8.10;99.90;;;;;;5048968;28;20208;-53
2021/05/07 09:23:40;;;;;;;4.67;3.07;;;8.20;99.90;;;;;;5049164;28;20685;-53
2021/05/07 09:26:08;;;;;;;3.50;3.20;;;8.30;99.90;;;;;;5049227;28;20233;-56
2021/05/07 09:28:35;;;;;;;4.60;4.20;;;8.40;99.90;;;;;;5049389;28;20251;-55
2021/05/07 09:31:13;;;;;;;4.90;4.23;;;8.50;99.90;;;;;;5048970;28;20225;-55
2021/05/07 09:33:41;;;;;;;4.90;4.40;;;8.70;99.90;;;;;;5047706;28;20243;-54
2021/05/07 09:36:09;;;;;;;4.40;3.93;;;8.60;99.90;;;;;;5049008;28;20197;-57
2021/05/07 09:38:37;;;;;;;4.80;4.37;;;8.60;99.90;;;;;;5049479;28;20295;-51
2021/05/07 09:41:04;;;;;;;5.17;4.43;;;8.60;99.90;;;;;;5049050;28;20296;-56
2021/05/07 09:43:31;;;;;;;5.00;4.50;;;8.80;99.90;;;;;;5049223;28;20546;-56
2021/05/07 09:45:58;;;;;;;4.70;4.20;;;8.90;99.90;;;;;;5049141;28;20301;-54
2021/05/07 09:48:26;;;;;;;4.63;4.23;;;9.10;99.90;;;;;;5049227;28;20205;-55
2021/05/07 09:50:57;;;;;;;4.57;4.17;;;9.30;99.90;;;;;;5048879;28;20776;-54
2021/05/07 09:53:26;;;;;;;4.60;4.03;;;9.40;99.90;;;;;;5049110;28;20202;-53
2021/05/07 09:55:57;;;;;;;4.20;3.90;;;9.60;99.90;;;;;;5048925;28;20305;-53
2021/05/07 09:58:23;;;;;;;4.53;4.00;;;9.90;99.90;;;;;;5049180;28;20558;-56
2021/05/07 10:00:50;;;;;;;4.10;3.73;;;10.30;99.90;;;;;;5048949;28;20296;-52
2021/05/07 10:03:17;;;;;;;4.40;4.03;;;10.60;99.90;;;;;;5048514;28;20227;-56
2021/05/07 10:05:44;;;;;;;4.63;3.77;;;11.00;99.90;;;;;;5048593;28;20209;-53
2021/05/07 10:08:11;;;;;;;4.37;3.97;;;11.10;99.90;;;;;;5048520;28;20549;-52
2021/05/07 10:10:42;;;;;;;4.13;3.83;;;11.50;99.90;;;;;;5048795;28;20908;-52
2021/05/07 10:13:13;;;;;;;4.60;4.17;;;11.80;99.90;;;;;;5048530;28;20213;-55
2021/05/07 10:15:41;;;;;;;4.03;3.70;;;12.10;99.90;;;;;;5048485;28;20186;-51
2021/05/07 10:18:10;;;;;;;4.17;3.83;;;12.00;99.90;;;;;;5048660;28;20343;-55
2021/05/07 10:20:38;;;;;;;4.67;3.87;;;11.60;99.90;;;;;;5048794;28;20237;-56
2021/05/07 10:23:15;;;;;;;4.23;3.83;;;11.20;99.90;;;;;;5048409;28;20182;-56
2021/05/07 10:25:54;;;;;;;4.80;4.33;;;10.60;99.90;;;;;;5048714;28;20202;-55
2021/05/07 10:28:22;;;;;;;4.00;3.70;;;10.00;99.90;;;;;;5052207;28;20296;-56
2021/05/07 10:30:49;;;;;;;4.00;3.60;;;9.70;99.90;;;;;;5053533;28;20268;-54
2021/05/07 10:33:18;;;;;;;4.30;3.67;;;9.50;99.90;;;;;;5054584;28;20251;-57
2021/05/07 10:35:48;;;;;;;4.87;4.10;;;9.30;99.90;;;;;;5047667;28;20206;-56
2021/05/07 10:38:17;;;;;;;4.73;4.10;;;9.30;99.90;;;;;;5035540;28;20240;-56
2021/05/07 10:40:49;;;;;;;5.50;4.10;;;9.30;99.90;;;;;;5034592;28;20292;-54
2021/05/07 10:43:17;;;;;;;4.43;4.03;;;9.30;99.90;;;;;;5035177;28;20193;-54
2021/05/07 10:45:49;;;;;;;4.73;3.90;;;9.10;99.90;;;;;;5034146;28;20301;-57
2021/05/07 10:48:24;;;;;;;4.93;4.50;;;8.90;99.90;;;;;;5035212;28;20286;-56
2021/05/07 10:50:54;;;;;;;4.03;3.53;;;8.80;99.90;;;;;;5035234;28;20590;-57
2021/05/07 10:53:35;;;;;;;4.30;3.87;;;8.80;99.90;;;;;;5051282;28;20312;-52
2021/05/07 10:56:14;;;;;;;4.70;4.20;;;8.80;99.90;;;;;;5052157;28;20186;-52
2021/05/07 10:58:42;;;;;;;4.07;3.77;;;8.90;99.90;;;;;;5051934;28;20213;-55
2021/05/07 11:01:21;;;;;;;4.67;4.17;;;8.90;99.90;;;;;;5051433;28;20253;-57
2021/05/07 11:04:03;;;;;;;5.37;4.43;;;9.10;99.90;;;;;;5051951;28;21278;-56
2021/05/07 11:06:32;;;;;;;6.60;4.53;;;9.60;99.90;;;;;;5051859;28;20280;-56
2021/05/07 11:09:19;;;;;;;4.60;4.20;;;10.40;99.90;;;;;;5051306;28;20672;-54
2021/05/07 11:11:48;;;;;;;4.73;4.30;;;10.90;99.90;;;;;;5051382;28;20189;-52
2021/05/07 11:14:17;;;;;;;5.13;4.43;;;11.20;99.90;;;;;;5051284;28;20268;-53
2021/05/07 11:16:46;;;;;;;4.80;4.23;;;11.50;99.90;;;;;;5051471;28;20228;-54
2021/05/07 11:19:26;;;;;;;3.80;3.50;;;11.60;99.90;;;;;;5051164;28;20680;-57
2021/05/07 11:21:55;;;;;;;4.53;4.13;;;11.80;99.90;;;;;;5045997;28;20208;-56
2021/05/07 11:24:26;;;;;;;5.10;3.90;;;12.00;99.90;;;;;;5051341;28;20233;-56
2021/05/07 11:26:54;;;;;;;4.07;3.07;;;12.10;99.90;;;;;;5051075;28;20257;-52
2021/05/07 11:29:30;;;;;;;3.20;2.90;;;11.90;99.90;;;;;;5050705;28;20300;-55
2021/05/07 11:32:08;;;;;;;2.63;2.43;;;11.80;99.90;;;;;;5051452;28;20602;-52
2021/05/07 11:34:36;;;;;;;2.57;2.37;;;11.60;99.90;;;;;;5051208;28;20185;-55
2021/05/07 11:37:03;;;;;;;2.60;2.40;;;11.40;99.90;;;;;;5049374;28;20210;-52
2021/05/07 11:39:30;;;;;;;2.30;2.10;;;11.30;99.90;;;;;;5051021;28;20244;-56
2021/05/07 11:41:57;;;;;;;2.47;2.00;;;11.30;99.90;;;;;;5050772;28;20715;-55
2021/05/07 11:44:24;;;;;;;2.63;1.90;;;11.30;99.90;;;;;;5051017;28;20202;-53
2021/05/07 11:47:08;;;;;;;2.77;2.33;;;11.40;99.90;;;;;;5051021;28;20252;-57
2021/05/07 11:49:37;;;;;;;2.10;1.90;;;11.40;99.90;;;;;;5050654;28;20607;-55
2021/05/07 11:52:05;;;;;;;2.63;2.30;;;11.40;99.90;;;;;;5050464;28;20209;-56
2021/05/07 11:54:39;;;;;;;3.47;2.90;;;11.00;99.90;;;;;;5050843;28;20213;-54
2021/05/07 11:57:06;;;;;;;4.53;3.20;;;10.60;99.90;;;;;;5050879;28;20208;-54
2021/05/07 11:59:33;;;;;;;3.70;3.40;;;10.20;99.90;;;;;;5050421;28;20201;-55
2021/05/07 12:02:05;;;;;;;3.23;2.93;;;9.90;99.90;;;;;;5050235;28;20202;-53
2021/05/07 12:04:43;;;;;;;4.27;3.87;;;9.90;99.90;;;;;;5050029;28;20198;-53
2021/05/07 12:07:21;;;;;;;5.23;3.90;;;10.10;99.90;;;;;;5050067;28;20258;-56
2021/05/07 12:09:50;;;;;;;4.27;3.83;;;10.10;99.90;;;;;;5050282;28;20285;-56
2021/05/07 12:12:17;;;;;;;4.00;3.60;;;10.10;99.90;;;;;;5050507;28;20293;-57
2021/05/07 12:15:02;;;;;;;4.73;4.27;;;10.30;99.90;;;;;;5050339;28;20182;-52
2021/05/07 12:17:39;;;;;;;4.03;3.67;;;10.60;99.90;;;;;;5049657;28;20284;-53
2021/05/07 12:20:07;;;;;;;4.23;3.83;;;10.70;99.90;;;;;;5049359;28;20597;-53
2021/05/07 12:22:35;;;;;;;4.00;3.60;;;10.90;99.90;;;;;;5050138;28;20298;-55
2021/05/07 12:25:11;;;;;;;4.20;3.40;;;10.90;99.90;;;;;;5050046;28;20708;-55
2021/05/07 12:27:42;;;;;;;3.70;3.40;;;11.10;99.90;;;;;;5049969;28;20237;-55
2021/05/07 12:30:21;;;;;;;2.70;2.50;;;11.20;99.90;;;;;;5049879;28;20304;-54
2021/05/07 12:32:57;;;;;;;3.13;2.33;;;11.40;99.90;;;;;;5050759;28;20225;-57
2021/05/07 12:35:39;;;;;;;2.20;2.00;;;11.40;99.90;;;;;;5051586;28;20209;-54
2021/05/07 12:38:19;;;;;;;2.60;2.40;;;11.70;99.90;;;;;;5052723;28;20288;-54
2021/05/07 12:40:46;;;;;;;3.40;2.73;;;12.20;99.90;;;;;;5052493;28;20185;-52
2021/05/07 12:43:13;;;;;;;2.93;2.40;;;12.40;99.90;;;;;;5052842;28;20342;-53
2021/05/07 12:45:40;;;;;;;3.47;2.80;;;12.40;99.90;;;;;;5049507;28;20244;-55
2021/05/07 12:48:08;;;;;;;2.90;2.60;;;12.30;99.90;;;;;;5049627;28;20284;-52
2021/05/07 12:50:35;;;;;;;3.00;2.70;;;12.30;99.90;;;;;;5048648;28;20221;-53
2021/05/07 12:53:02;;;;;;;4.43;2.73;;;12.70;99.90;;;;;;5049677;28;20637;-55
2021/05/07 12:55:29;;;;;;;3.10;2.70;;;13.00;99.90;;;;;;5049676;28;20209;-55
2021/05/07 12:57:55;;;;;;;4.53;2.40;;;13.10;99.90;;;;;;5049786;28;20232;-55
2021/05/07 13:00:27;;;;;;;2.90;2.70;;;13.30;99.90;;;;;;5049979;28;20292;-55
2021/05/07 13:02:54;;;;;;;3.53;3.03;;;13.20;99.90;;;;;;5049420;28;20311;-54